PROFILE

 METAR AND TAF INFORMATION
ADDS - METARS form results

(0055 UTC 20 November 2022)
http://aviationweather.gov/metar/data/
 
FACT 200000Z 19002KT CAVOK 13/10 Q1021 NOSIG
TAF FACT 192200Z 2000/2106 17010KT CAVOK TX25/2012Z TN13/2004Z BECMG 2010/2012 17020KT BECMG 2018/2020 18010KT 

 AIRPORT MAP

 RUNWAY INFORMATION
Runway 01 Runway length 10502 ft Runway width 200 ft
Runway elevation 144 ft Runway displaced threshold 0 ft Runway heading 346
Runway 19 Runway length 10502 ft Runway width 200 ft
Runway elevation 147 ft Runway displaced threshold 0 ft Runway heading 166
Runway 16 Runway length 5581 ft Runway width 151 ft
Runway elevation 143 ft Runway displaced threshold 0 ft Runway heading 136
Runway 34 Runway length 5581 ft Runway width 151 ft
Runway elevation 151 ft Runway displaced threshold 0 ft Runway heading 316

 AIRPORT FREQUENCIES
Type APP Name APP Frequency 120.05 MHZ
Type ARSA Name Director Frequency 124.5 MHZ
Type ATIS Name ATIS Frequency 127 MHZ
Type GND Name GND Frequency 121.9 MHZ
Type GTE Name APRON Frequency 122.65 MHZ
Type TWR Name TWR Frequency 118.1 MHZ

 AIRPORT NEAR NAVIGATION AIDS
Type NDB Name Cape Town Frequency 463 KHZ
Type VORTAC Name Cape Town Frequency 115700 KHZ